sensor_id;sensor_type;location;lat;lon;timestamp;pressure;altitude;pressure_sealevel;temperature;humidity
550;BME280;20066;48.764;9.176;2023-07-31T00:02:08;98260.16;;;18.74;56.38
550;BME280;20066;48.764;9.176;2023-07-31T00:04:36;98255.69;;;19.06;55.19
550;BME280;20066;48.764;9.176;2023-07-31T00:07:06;98250.84;;;19.35;54.67
550;BME280;20066;48.764;9.176;2023-07-31T00:09:34;98243.22;;;19.17;55.03
550;BME280;20066;48.764;9.176;2023-07-31T00:12:02;98240.25;;;19.37;54.50
550;BME280;20066;48.764;9.176;2023-07-31T00:14:30;98234.44;;;19.48;53.95
550;BME280;20066;48.764;9.176;2023-07-31T00:16:59;98240.50;;;19.17;54.57
550;BME280;20066;48.764;9.176;2023-07-31T00:19:27;98249.44;;;18.29;56.18
550;BME280;20066;48.764;9.176;2023-07-31T00:21:55;98252.97;;;18.55;55.63
550;BME280;20066;48.764;9.176;2023-07-31T00:24:23;98252.97;;;19.06;55.51
550;BME280;20066;48.764;9.176;2023-07-31T00:26:50;98247.34;;;19.35;54.27
550;BME280;20066;48.764;9.176;2023-07-31T00:29:18;98251.75;;;19.19;54.02
550;BME280;20066;48.764;9.176;2023-07-31T00:31:46;98254.81;;;18.71;55.28
550;BME280;20066;48.764;9.176;2023-07-31T00:34:15;98244.28;;;18.85;55.08
550;BME280;20066;48.764;9.176;2023-07-31T00:36:43;98234.53;;;18.59;55.04
550;BME280;20066;48.764;9.176;2023-07-31T00:39:11;98247.06;;;18.57;55.46
550;BME280;20066;48.764;9.176;2023-07-31T00:41:39;98241.19;;;18.45;55.38
550;BME280;20066;48.764;9.176;2023-07-31T00:44:06;98243.03;;;18.74;55.12
550;BME280;20066;48.764;9.176;2023-07-31T00:46:34;98227.81;;;18.09;56.87
550;BME280;20066;48.764;9.176;2023-07-31T00:49:03;98229.56;;;18.03;57.49
550;BME280;20066;48.764;9.176;2023-07-31T00:51:32;98232.25;;;18.45;55.66
550;BME280;20066;48.764;9.176;2023-07-31T00:54:01;98233.88;;;18.30;56.91
550;BME280;20066;48.764;9.176;2023-07-31T00:56:30;98230.03;;;18.27;57.15
550;BME280;20066;48.764;9.176;2023-07-31T00:58:58;98225.53;;;17.50;59.18
550;BME280;20066;48.764;9.176;2023-07-31T01:01:27;98221.38;;;17.46;59.35
550;BME280;20066;48.764;9.176;2023-07-31T01:03:55;98234.53;;;17.92;57.84
550;BME280;20066;48.764;9.176;2023-07-31T01:06:29;98245.53;;;18.01;57.58
550;BME280;20066;48.764;9.176;2023-07-31T01:09:02;98234.63;;;18.56;56.66
550;BME280;20066;48.764;9.176;2023-07-31T01:11:33;98241.72;;;18.66;56.18
550;BME280;20066;48.764;9.176;2023-07-31T01:14:02;98238.25;;;18.91;55.88
550;BME280;20066;48.764;9.176;2023-07-31T01:16:30;98239.19;;;19.22;55.39
550;BME280;20066;48.764;9.176;2023-07-31T01:18:58;98233.88;;;18.80;56.45
550;BME280;20066;48.764;9.176;2023-07-31T01:21:43;98232.13;;;18.74;57.24
550;BME280;20066;48.764;9.176;2023-07-31T01:24:22;98228.97;;;18.37;58.05
550;BME280;20066;48.764;9.176;2023-07-31T01:26:56;98225.72;;;18.55;57.99
550;BME280;20066;48.764;9.176;2023-07-31T01:29:44;98217.53;;;19.06;56.08
550;BME280;20066;48.764;9.176;2023-07-31T01:32:14;98216.63;;;18.07;58.59
550;BME280;20066;48.764;9.176;2023-07-31T01:34:45;98223.44;;;18.92;56.44
550;BME280;20066;48.764;9.176;2023-07-31T01:37:13;98223.31;;;18.82;57.10
550;BME280;20066;48.764;9.176;2023-07-31T01:39:41;98219.03;;;19.07;56.23
550;BME280;20066;48.764;9.176;2023-07-31T01:42:10;98214.91;;;18.64;56.83
550;BME280;20066;48.764;9.176;2023-07-31T01:44:38;98211.09;;;18.87;56.66
550;BME280;20066;48.764;9.176;2023-07-31T01:47:06;98213.50;;;18.60;57.74
550;BME280;20066;48.764;9.176;2023-07-31T01:49:34;98206.06;;;18.73;57.55
550;BME280;20066;48.764;9.176;2023-07-31T01:52:02;98208.69;;;18.64;57.09
550;BME280;20066;48.764;9.176;2023-07-31T01:54:29;98203.16;;;18.93;56.93
550;BME280;20066;48.764;9.176;2023-07-31T01:56:57;98201.75;;;18.63;57.24
550;BME280;20066;48.764;9.176;2023-07-31T01:59:26;98201.72;;;18.75;57.31
550;BME280;20066;48.764;9.176;2023-07-31T02:01:55;98198.88;;;18.41;57.31
550;BME280;20066;48.764;9.176;2023-07-31T02:04:23;98197.91;;;18.73;56.84
550;BME280;20066;48.764;9.176;2023-07-31T02:06:52;98189.50;;;18.80;56.27
550;BME280;20066;48.764;9.176;2023-07-31T02:09:20;98190.34;;;19.02;55.98
550;BME280;20066;48.764;9.176;2023-07-31T02:11:47;98192.69;;;18.78;56.51
550;BME280;20066;48.764;9.176;2023-07-31T02:14:15;98191.25;;;18.74;56.55
550;BME280;20066;48.764;9.176;2023-07-31T02:16:44;98181.78;;;18.53;57.05
550;BME280;20066;48.764;9.176;2023-07-31T02:19:12;98179.41;;;18.55;56.33
550;BME280;20066;48.764;9.176;2023-07-31T02:21:40;98170.41;;;19.05;55.12
550;BME280;20066;48.764;9.176;2023-07-31T02:24:07;98168.72;;;19.20;55.05
550;BME280;20066;48.764;9.176;2023-07-31T02:26:35;98171.09;;;18.71;55.89
550;BME280;20066;48.764;9.176;2023-07-31T02:29:03;98165.22;;;18.85;55.64
550;BME280;20066;48.764;9.176;2023-07-31T02:31:31;98167.75;;;18.55;55.96
550;BME280;20066;48.764;9.176;2023-07-31T02:34:00;98157.47;;;18.84;55.71
550;BME280;20066;48.764;9.176;2023-07-31T02:36:28;98157.72;;;18.52;56.54
550;BME280;20066;48.764;9.176;2023-07-31T02:38:56;98150.06;;;18.59;55.67
550;BME280;20066;48.764;9.176;2023-07-31T02:41:24;98157.91;;;18.70;55.54
550;BME280;20066;48.764;9.176;2023-07-31T02:43:51;98156.63;;;18.62;55.34
550;BME280;20066;48.764;9.176;2023-07-31T02:46:20;98157.03;;;18.85;54.83
550;BME280;20066;48.764;9.176;2023-07-31T02:48:51;98146.88;;;18.99;54.81
550;BME280;20066;48.764;9.176;2023-07-31T02:51:20;98144.25;;;18.95;54.50
550;BME280;20066;48.764;9.176;2023-07-31T02:53:48;98148.44;;;18.36;56.36
550;BME280;20066;48.764;9.176;2023-07-31T02:56:16;98132.84;;;18.49;55.88
550;BME280;20066;48.764;9.176;2023-07-31T02:58:44;98128.91;;;18.63;55.59
550;BME280;20066;48.764;9.176;2023-07-31T03:01:11;98131.44;;;18.58;56.01
550;BME280;20066;48.764;9.176;2023-07-31T03:03:41;98127.44;;;18.24;56.95
550;BME280;20066;48.764;9.176;2023-07-31T03:06:09;98133.19;;;18.26;56.46
550;BME280;20066;48.764;9.176;2023-07-31T03:08:38;98130.44;;;18.64;55.55
550;BME280;20066;48.764;9.176;2023-07-31T03:11:06;98133.16;;;18.77;54.93
550;BME280;20066;48.764;9.176;2023-07-31T03:13:33;98137.88;;;18.13;56.74
550;BME280;20066;48.764;9.176;2023-07-31T03:16:01;98145.41;;;18.34;55.74
550;BME280;20066;48.764;9.176;2023-07-31T03:18:29;98134.03;;;18.74;55.22
550;BME280;20066;48.764;9.176;2023-07-31T03:20:57;98143.88;;;18.08;57.10
550;BME280;20066;48.764;9.176;2023-07-31T03:23:25;98141.03;;;18.49;56.17
550;BME280;20066;48.764;9.176;2023-07-31T03:25:57;98141.16;;;18.46;56.99
550;BME280;20066;48.764;9.176;2023-07-31T03:28:25;98139.63;;;18.32;56.75
550;BME280;20066;48.764;9.176;2023-07-31T03:30:53;98141.63;;;18.79;56.08
550;BME280;20066;48.764;9.176;2023-07-31T03:33:21;98143.63;;;18.78;55.59
550;BME280;20066;48.764;9.176;2023-07-31T03:35:49;98142.97;;;18.74;55.95
550;BME280;20066;48.764;9.176;2023-07-31T03:38:17;98138.78;;;18.95;55.00
550;BME280;20066;48.764;9.176;2023-07-31T03:40:45;98142.72;;;19.29;54.63
550;BME280;20066;48.764;9.176;2023-07-31T03:43:15;98146.47;;;19.44;54.17
550;BME280;20066;48.764;9.176;2023-07-31T03:45:42;98155.16;;;19.30;54.33
550;BME280;20066;48.764;9.176;2023-07-31T03:48:10;98156.09;;;19.14;55.05
550;BME280;20066;48.764;9.176;2023-07-31T03:50:38;98145.25;;;19.23;54.37
550;BME280;20066;48.764;9.176;2023-07-31T03:53:06;98146.13;;;18.73;54.91
550;BME280;20066;48.764;9.176;2023-07-31T03:55:34;98155.91;;;18.83;55.23
550;BME280;20066;48.764;9.176;2023-07-31T03:58:01;98155.50;;;19.32;53.87
550;BME280;20066;48.764;9.176;2023-07-31T04:02:58;98154.41;;;19.29;53.58
550;BME280;20066;48.764;9.176;2023-07-31T04:05:26;98156.72;;;17.79;56.16
550;BME280;20066;48.764;9.176;2023-07-31T04:07:54;98161.06;;;18.56;54.77
550;BME280;20066;48.764;9.176;2023-07-31T04:10:22;98148.16;;;18.94;53.68
550;BME280;20066;48.764;9.176;2023-07-31T04:12:49;98147.97;;;18.76;54.41
550;BME280;20066;48.764;9.176;2023-07-31T04:15:17;98144.66;;;19.06;53.23
550;BME280;20066;48.764;9.176;2023-07-31T04:17:46;98142.53;;;18.63;53.88
550;BME280;20066;48.764;9.176;2023-07-31T04:20:14;98138.53;;;18.55;54.38
550;BME280;20066;48.764;9.176;2023-07-31T04:22:42;98148.63;;;18.80;54.54
550;BME280;20066;48.764;9.176;2023-07-31T04:25:10;98140.28;;;18.36;55.11
550;BME280;20066;48.764;9.176;2023-07-31T04:27:39;98136.19;;;18.92;53.66
550;BME280;20066;48.764;9.176;2023-07-31T04:30:08;98129.47;;;18.83;53.91
550;BME280;20066;48.764;9.176;2023-07-31T04:32:36;98130.88;;;18.75;54.20
550;BME280;20066;48.764;9.176;2023-07-31T04:35:06;98134.69;;;19.25;53.45
550;BME280;20066;48.764;9.176;2023-07-31T04:37:34;98135.13;;;19.45;53.14
550;BME280;20066;48.764;9.176;2023-07-31T04:40:02;98126.38;;;19.50;52.67
550;BME280;20066;48.764;9.176;2023-07-31T04:42:30;98132.88;;;18.12;55.75
550;BME280;20066;48.764;9.176;2023-07-31T04:44:57;98142.25;;;18.36;55.28
550;BME280;20066;48.764;9.176;2023-07-31T04:47:25;98136.41;;;18.72;54.72
550;BME280;20066;48.764;9.176;2023-07-31T04:49:53;98134.59;;;18.18;55.81
550;BME280;20066;48.764;9.176;2023-07-31T04:52:22;98142.63;;;17.84;57.15
550;BME280;20066;48.764;9.176;2023-07-31T04:54:50;98130.63;;;17.94;56.73
550;BME280;20066;48.764;9.176;2023-07-31T04:57:18;98135.44;;;17.90;56.73
550;BME280;20066;48.764;9.176;2023-07-31T04:59:46;98129.25;;;18.02;56.31
550;BME280;20066;48.764;9.176;2023-07-31T05:02:17;98129.94;;;18.31;55.99
550;BME280;20066;48.764;9.176;2023-07-31T05:04:45;98131.34;;;18.23;56.26
550;BME280;20066;48.764;9.176;2023-07-31T05:07:13;98128.81;;;18.41;55.95
550;BME280;20066;48.764;9.176;2023-07-31T05:09:43;98127.09;;;18.35;56.11
550;BME280;20066;48.764;9.176;2023-07-31T05:12:11;98123.16;;;18.10;56.63
550;BME280;20066;48.764;9.176;2023-07-31T05:14:39;98128.88;;;17.75;57.56
550;BME280;20066;48.764;9.176;2023-07-31T05:17:07;98118.13;;;17.96;56.74
550;BME280;20066;48.764;9.176;2023-07-31T05:19:35;98121.00;;;18.18;57.17
550;BME280;20066;48.764;9.176;2023-07-31T05:22:03;98122.31;;;18.01;56.95
550;BME280;20066;48.764;9.176;2023-07-31T05:24:31;98121.34;;;17.53;58.01
550;BME280;20066;48.764;9.176;2023-07-31T05:27:01;98131.41;;;17.82;58.10
550;BME280;20066;48.764;9.176;2023-07-31T05:29:29;98125.88;;;17.85;57.91
550;BME280;20066;48.764;9.176;2023-07-31T05:31:57;98132.66;;;18.06;57.12
550;BME280;20066;48.764;9.176;2023-07-31T05:34:25;98129.13;;;17.93;57.46
550;BME280;20066;48.764;9.176;2023-07-31T05:36:53;98124.75;;;17.83;57.53
550;BME280;20066;48.764;9.176;2023-07-31T05:39:21;98130.91;;;17.99;57.67
550;BME280;20066;48.764;9.176;2023-07-31T05:41:49;98131.75;;;18.60;56.14
550;BME280;20066;48.764;9.176;2023-07-31T05:44:18;98132.41;;;18.76;55.66
550;BME280;20066;48.764;9.176;2023-07-31T05:46:46;98143.00;;;17.98;57.10
550;BME280;20066;48.764;9.176;2023-07-31T05:49:17;98134.09;;;18.23;56.61
550;BME280;20066;48.764;9.176;2023-07-31T05:51:46;98130.00;;;18.78;55.24
550;BME280;20066;48.764;9.176;2023-07-31T05:54:14;98121.28;;;18.58;55.89
550;BME280;20066;48.764;9.176;2023-07-31T05:56:42;98115.13;;;18.45;56.54
550;BME280;20066;48.764;9.176;2023-07-31T05:59:12;98117.41;;;18.34;57.00
550;BME280;20066;48.764;9.176;2023-07-31T06:01:41;98110.44;;;18.20;57.26
550;BME280;20066;48.764;9.176;2023-07-31T06:04:09;98114.47;;;19.01;55.10
550;BME280;20066;48.764;9.176;2023-07-31T06:06:37;98116.84;;;19.33;54.00
550;BME280;20066;48.764;9.176;2023-07-31T06:09:06;98118.88;;;18.85;55.07
550;BME280;20066;48.764;9.176;2023-07-31T06:11:34;98116.22;;;19.51;53.81
550;BME280;20066;48.764;9.176;2023-07-31T06:14:01;98130.94;;;19.75;53.17
550;BME280;20066;48.764;9.176;2023-07-31T06:16:29;98122.00;;;19.53;53.03
550;BME280;20066;48.764;9.176;2023-07-31T06:18:59;98117.22;;;19.01;53.87
550;BME280;20066;48.764;9.176;2023-07-31T06:21:28;98121.94;;;18.75;54.68
550;BME280;20066;48.764;9.176;2023-07-31T06:23:56;98122.34;;;19.20;54.00
550;BME280;20066;48.764;9.176;2023-07-31T06:26:24;98113.47;;;19.51;53.21
550;BME280;20066;48.764;9.176;2023-07-31T06:28:52;98121.16;;;18.74;54.24
550;BME280;20066;48.764;9.176;2023-07-31T06:31:20;98124.41;;;20.44;50.15
550;BME280;20066;48.764;9.176;2023-07-31T06:33:51;98120.59;;;19.92;51.02
550;BME280;20066;48.764;9.176;2023-07-31T06:36:20;98130.19;;;20.06;51.21
550;BME280;20066;48.764;9.176;2023-07-31T06:38:48;98130.03;;;20.00;51.24
550;BME280;20066;48.764;9.176;2023-07-31T06:41:16;98121.16;;;19.65;51.76
550;BME280;20066;48.764;9.176;2023-07-31T06:43:44;98131.06;;;19.72;51.89
550;BME280;20066;48.764;9.176;2023-07-31T06:46:12;98131.38;;;19.30;53.23
550;BME280;20066;48.764;9.176;2023-07-31T06:48:41;98122.97;;;20.21;50.61
550;BME280;20066;48.764;9.176;2023-07-31T06:51:08;98127.84;;;19.86;50.96
550;BME280;20066;48.764;9.176;2023-07-31T06:53:37;98124.78;;;20.15;50.81
550;BME280;20066;48.764;9.176;2023-07-31T06:56:05;98134.50;;;19.85;51.85
550;BME280;20066;48.764;9.176;2023-07-31T06:58:33;98133.78;;;19.50;52.65
550;BME280;20066;48.764;9.176;2023-07-31T07:01:01;98132.72;;;20.62;49.63
550;BME280;20066;48.764;9.176;2023-07-31T07:03:29;98131.31;;;20.48;50.27
550;BME280;20066;48.764;9.176;2023-07-31T07:05:57;98125.47;;;19.53;52.31
550;BME280;20066;48.764;9.176;2023-07-31T07:08:25;98135.97;;;21.42;49.04
550;BME280;20066;48.764;9.176;2023-07-31T07:10:55;98141.53;;;21.94;46.84
550;BME280;20066;48.764;9.176;2023-07-31T07:13:34;98126.06;;;20.32;50.26
550;BME280;20066;48.764;9.176;2023-07-31T07:16:05;98127.25;;;20.62;49.70
550;BME280;20066;48.764;9.176;2023-07-31T07:18:33;98129.22;;;20.61;50.11
550;BME280;20066;48.764;9.176;2023-07-31T07:21:06;98130.09;;;20.58;49.56
550;BME280;20066;48.764;9.176;2023-07-31T07:23:34;98125.75;;;20.30;50.07
550;BME280;20066;48.764;9.176;2023-07-31T07:26:06;98121.78;;;20.22;49.66
550;BME280;20066;48.764;9.176;2023-07-31T07:28:34;98112.84;;;20.30;49.79
550;BME280;20066;48.764;9.176;2023-07-31T07:31:03;98120.13;;;20.64;49.27
550;BME280;20066;48.764;9.176;2023-07-31T07:33:31;98116.91;;;20.66;49.11
550;BME280;20066;48.764;9.176;2023-07-31T07:36:00;98110.22;;;20.58;49.06
550;BME280;20066;48.764;9.176;2023-07-31T07:38:28;98124.44;;;21.47;47.98
550;BME280;20066;48.764;9.176;2023-07-31T07:40:56;98113.31;;;21.05;48.52
550;BME280;20066;48.764;9.176;2023-07-31T07:43:25;98115.41;;;21.65;47.41
550;BME280;20066;48.764;9.176;2023-07-31T07:45:53;98125.91;;;21.67;46.77
550;BME280;20066;48.764;9.176;2023-07-31T07:48:21;98116.69;;;21.37;47.68
550;BME280;20066;48.764;9.176;2023-07-31T07:50:50;98115.59;;;21.43;47.71
550;BME280;20066;48.764;9.176;2023-07-31T07:53:18;98118.44;;;21.85;46.37
550;BME280;20066;48.764;9.176;2023-07-31T07:55:45;98120.34;;;21.34;47.79
550;BME280;20066;48.764;9.176;2023-07-31T07:58:13;98110.75;;;21.57;47.06
550;BME280;20066;48.764;9.176;2023-07-31T08:00:48;98106.63;;;21.61;47.73
550;BME280;20066;48.764;9.176;2023-07-31T08:03:16;98114.03;;;21.79;47.79
550;BME280;20066;48.764;9.176;2023-07-31T08:05:44;98121.78;;;22.32;46.90
550;BME280;20066;48.764;9.176;2023-07-31T08:08:14;98103.41;;;22.23;46.99
550;BME280;20066;48.764;9.176;2023-07-31T08:10:43;98087.47;;;20.97;48.71
550;BME280;20066;48.764;9.176;2023-07-31T08:13:11;98090.38;;;21.03;48.71
550;BME280;20066;48.764;9.176;2023-07-31T08:15:42;98105.25;;;22.17;46.18
550;BME280;20066;48.764;9.176;2023-07-31T08:18:10;98096.34;;;21.98;46.70
550;BME280;20066;48.764;9.176;2023-07-31T08:20:38;98099.13;;;23.02;45.25
550;BME280;20066;48.764;9.176;2023-07-31T08:23:06;98090.13;;;23.85;44.86
550;BME280;20066;48.764;9.176;2023-07-31T08:25:34;98101.75;;;23.35;43.19
550;BME280;20066;48.764;9.176;2023-07-31T08:28:02;98098.63;;;22.65;45.09
550;BME280;20066;48.764;9.176;2023-07-31T08:30:31;98090.88;;;22.88;44.17
550;BME280;20066;48.764;9.176;2023-07-31T08:33:01;98100.19;;;22.24;46.06
550;BME280;20066;48.764;9.176;2023-07-31T08:35:29;98088.03;;;22.49;44.99
550;BME280;20066;48.764;9.176;2023-07-31T08:37:57;98085.59;;;23.14;45.08
550;BME280;20066;48.764;9.176;2023-07-31T08:40:25;98091.75;;;23.09;44.31
550;BME280;20066;48.764;9.176;2023-07-31T08:42:54;98071.72;;;22.79;43.59
550;BME280;20066;48.764;9.176;2023-07-31T08:45:23;98065.03;;;23.62;41.85
550;BME280;20066;48.764;9.176;2023-07-31T08:47:52;98067.47;;;24.19;40.95
550;BME280;20066;48.764;9.176;2023-07-31T08:50:21;98061.78;;;22.34;45.15
550;BME280;20066;48.764;9.176;2023-07-31T08:52:51;98064.66;;;21.97;45.70
550;BME280;20066;48.764;9.176;2023-07-31T08:55:21;98062.03;;;23.07;46.35
550;BME280;20066;48.764;9.176;2023-07-31T08:57:51;98065.59;;;22.84;44.54
550;BME280;20066;48.764;9.176;2023-07-31T09:00:20;98069.00;;;23.32;43.42
550;BME280;20066;48.764;9.176;2023-07-31T09:02:54;98068.16;;;21.46;46.45
550;BME280;20066;48.764;9.176;2023-07-31T09:05:26;98063.00;;;22.33;45.27
550;BME280;20066;48.764;9.176;2023-07-31T09:07:55;98050.63;;;23.67;42.51
550;BME280;20066;48.764;9.176;2023-07-31T09:10:24;98042.13;;;23.51;43.21
550;BME280;20066;48.764;9.176;2023-07-31T09:12:52;98052.31;;;23.94;42.72
550;BME280;20066;48.764;9.176;2023-07-31T09:15:20;98052.50;;;24.40;40.46
550;BME280;20066;48.764;9.176;2023-07-31T09:18:04;98055.09;;;23.79;42.85
550;BME280;20066;48.764;9.176;2023-07-31T09:20:35;98057.53;;;22.00;45.81
550;BME280;20066;48.764;9.176;2023-07-31T09:23:08;98056.59;;;22.83;44.92
550;BME280;20066;48.764;9.176;2023-07-31T09:25:37;98063.91;;;24.53;41.97
550;BME280;20066;48.764;9.176;2023-07-31T09:28:07;98064.03;;;24.24;41.98
550;BME280;20066;48.764;9.176;2023-07-31T09:30:46;98053.81;;;23.22;44.01
550;BME280;20066;48.764;9.176;2023-07-31T09:33:14;98050.91;;;23.40;43.77
550;BME280;20066;48.764;9.176;2023-07-31T09:35:44;98057.19;;;22.87;43.86
550;BME280;20066;48.764;9.176;2023-07-31T09:38:13;98056.13;;;22.61;45.03
550;BME280;20066;48.764;9.176;2023-07-31T09:40:43;98045.56;;;22.45;44.77
550;BME280;20066;48.764;9.176;2023-07-31T09:43:12;98045.00;;;22.08;46.31
550;BME280;20066;48.764;9.176;2023-07-31T09:45:41;98030.94;;;21.82;46.40
550;BME280;20066;48.764;9.176;2023-07-31T09:48:11;98029.38;;;21.90;46.49
550;BME280;20066;48.764;9.176;2023-07-31T09:50:40;98018.88;;;21.56;46.83
550;BME280;20066;48.764;9.176;2023-07-31T09:53:10;98011.91;;;22.44;46.19
550;BME280;20066;48.764;9.176;2023-07-31T09:55:40;98020.25;;;24.41;44.71
550;BME280;20066;48.764;9.176;2023-07-31T09:58:10;98003.09;;;24.92;42.19
550;BME280;20066;48.764;9.176;2023-07-31T10:00:39;98006.91;;;23.20;43.73
550;BME280;20066;48.764;9.176;2023-07-31T10:03:08;97996.34;;;22.26;46.31
550;BME280;20066;48.764;9.176;2023-07-31T10:05:40;97994.22;;;22.45;44.70
550;BME280;20066;48.764;9.176;2023-07-31T10:08:10;97992.88;;;23.62;43.03
550;BME280;20066;48.764;9.176;2023-07-31T10:10:42;97981.13;;;24.31;41.10
550;BME280;20066;48.764;9.176;2023-07-31T10:13:11;97994.03;;;24.66;41.54
550;BME280;20066;48.764;9.176;2023-07-31T10:15:39;97984.47;;;25.07;39.40
550;BME280;20066;48.764;9.176;2023-07-31T10:18:10;97989.22;;;23.85;42.22
550;BME280;20066;48.764;9.176;2023-07-31T10:20:39;98000.25;;;23.70;41.91
550;BME280;20066;48.764;9.176;2023-07-31T10:23:09;97983.59;;;24.49;41.01
550;BME280;20066;48.764;9.176;2023-07-31T10:25:38;97979.13;;;24.32;41.24
550;BME280;20066;48.764;9.176;2023-07-31T10:28:06;97973.09;;;24.28;40.48
550;BME280;20066;48.764;9.176;2023-07-31T10:30:36;97975.22;;;24.18;41.18
550;BME280;20066;48.764;9.176;2023-07-31T10:33:06;97976.38;;;25.24;39.39
550;BME280;20066;48.764;9.176;2023-07-31T10:35:34;97968.75;;;24.41;40.32
550;BME280;20066;48.764;9.176;2023-07-31T10:38:13;97955.47;;;23.20;42.87
550;BME280;20066;48.764;9.176;2023-07-31T10:40:41;97943.19;;;23.01;43.89
550;BME280;20066;48.764;9.176;2023-07-31T10:43:09;97966.91;;;25.30;40.49
550;BME280;20066;48.764;9.176;2023-07-31T10:45:41;97972.06;;;25.43;39.21
550;BME280;20066;48.764;9.176;2023-07-31T10:48:13;97963.34;;;25.24;39.62
550;BME280;20066;48.764;9.176;2023-07-31T10:50:47;97967.72;;;25.37;38.22
550;BME280;20066;48.764;9.176;2023-07-31T10:53:24;97972.63;;;25.53;38.19
550;BME280;20066;48.764;9.176;2023-07-31T10:55:52;97967.31;;;25.44;38.53
550;BME280;20066;48.764;9.176;2023-07-31T10:58:20;97958.03;;;27.25;36.06
550;BME280;20066;48.764;9.176;2023-07-31T11:00:48;97965.84;;;27.20;36.37
550;BME280;20066;48.764;9.176;2023-07-31T11:03:17;97957.56;;;26.28;36.49
550;BME280;20066;48.764;9.176;2023-07-31T11:05:49;97950.47;;;25.73;37.59
550;BME280;20066;48.764;9.176;2023-07-31T11:08:21;97946.28;;;24.43;40.07
550;BME280;20066;48.764;9.176;2023-07-31T11:11:05;97949.84;;;24.95;40.66
550;BME280;20066;48.764;9.176;2023-07-31T11:13:34;97953.69;;;24.57;40.53
550;BME280;20066;48.764;9.176;2023-07-31T11:16:06;97938.00;;;23.67;41.50
550;BME280;20066;48.764;9.176;2023-07-31T11:18:35;97949.81;;;23.09;42.93
550;BME280;20066;48.764;9.176;2023-07-31T11:21:03;97952.44;;;24.38;40.57
550;BME280;20066;48.764;9.176;2023-07-31T11:23:31;97948.69;;;23.01;42.74
550;BME280;20066;48.764;9.176;2023-07-31T11:26:00;97949.13;;;23.58;41.75
550;BME280;20066;48.764;9.176;2023-07-31T11:28:32;97935.47;;;23.64;42.02
550;BME280;20066;48.764;9.176;2023-07-31T11:31:01;97940.03;;;23.23;42.74
550;BME280;20066;48.764;9.176;2023-07-31T11:33:29;97933.38;;;22.17;45.15
550;BME280;20066;48.764;9.176;2023-07-31T11:35:58;97937.59;;;23.25;43.34
550;BME280;20066;48.764;9.176;2023-07-31T11:38:27;97939.91;;;23.61;42.82
550;BME280;20066;48.764;9.176;2023-07-31T11:40:56;97942.34;;;23.10;43.47
550;BME280;20066;48.764;9.176;2023-07-31T11:43:26;97950.47;;;25.10;38.92
550;BME280;20066;48.764;9.176;2023-07-31T11:45:55;97947.75;;;24.03;41.64
550;BME280;20066;48.764;9.176;2023-07-31T11:48:25;97935.34;;;23.73;41.84
550;BME280;20066;48.764;9.176;2023-07-31T11:50:57;97923.63;;;23.72;42.35
550;BME280;20066;48.764;9.176;2023-07-31T11:53:28;97924.19;;;24.37;41.49
550;BME280;20066;48.764;9.176;2023-07-31T11:55:59;97928.28;;;25.51;40.00
550;BME280;20066;48.764;9.176;2023-07-31T11:58:30;97912.53;;;23.67;42.63
550;BME280;20066;48.764;9.176;2023-07-31T12:00:59;97898.66;;;23.76;42.41
550;BME280;20066;48.764;9.176;2023-07-31T12:03:28;97898.34;;;23.89;42.17
550;BME280;20066;48.764;9.176;2023-07-31T12:05:58;97882.47;;;23.58;43.05
550;BME280;20066;48.764;9.176;2023-07-31T12:08:26;97886.25;;;24.41;41.57
550;BME280;20066;48.764;9.176;2023-07-31T12:10:54;97889.53;;;24.45;41.94
550;BME280;20066;48.764;9.176;2023-07-31T12:13:23;97892.03;;;24.95;42.12
550;BME280;20066;48.764;9.176;2023-07-31T12:15:56;97887.19;;;24.84;40.45
550;BME280;20066;48.764;9.176;2023-07-31T12:18:26;97881.09;;;24.75;41.70
550;BME280;20066;48.764;9.176;2023-07-31T12:20:55;97879.28;;;24.46;41.85
550;BME280;20066;48.764;9.176;2023-07-31T12:23:26;97882.00;;;24.92;40.79
550;BME280;20066;48.764;9.176;2023-07-31T12:26:02;97894.00;;;24.89;41.41
550;BME280;20066;48.764;9.176;2023-07-31T12:28:35;97884.38;;;23.72;43.17
550;BME280;20066;48.764;9.176;2023-07-31T12:31:10;97878.75;;;24.42;42.37
550;BME280;20066;48.764;9.176;2023-07-31T12:33:40;97879.16;;;24.61;40.77
550;BME280;20066;48.764;9.176;2023-07-31T12:36:09;97873.50;;;24.18;41.90
550;BME280;20066;48.764;9.176;2023-07-31T12:38:37;97872.84;;;23.33;43.83
550;BME280;20066;48.764;9.176;2023-07-31T12:41:05;97864.59;;;23.33;43.14
550;BME280;20066;48.764;9.176;2023-07-31T12:43:34;97851.94;;;24.11;41.71
550;BME280;20066;48.764;9.176;2023-07-31T12:46:02;97857.56;;;23.12;43.81
550;BME280;20066;48.764;9.176;2023-07-31T12:48:32;97854.59;;;23.65;42.50
550;BME280;20066;48.764;9.176;2023-07-31T12:51:00;97853.81;;;24.25;41.12
550;BME280;20066;48.764;9.176;2023-07-31T12:53:28;97855.66;;;24.34;41.11
550;BME280;20066;48.764;9.176;2023-07-31T12:55:59;97849.34;;;23.67;42.27
550;BME280;20066;48.764;9.176;2023-07-31T12:58:27;97850.78;;;24.43;41.89
550;BME280;20066;48.764;9.176;2023-07-31T13:00:55;97836.13;;;24.83;40.35
550;BME280;20066;48.764;9.176;2023-07-31T13:03:23;97831.75;;;23.59;42.90
550;BME280;20066;48.764;9.176;2023-07-31T13:05:53;97826.06;;;24.23;42.02
550;BME280;20066;48.764;9.176;2023-07-31T13:08:20;97824.06;;;24.49;41.01
550;BME280;20066;48.764;9.176;2023-07-31T13:10:48;97817.34;;;23.84;42.49
550;BME280;20066;48.764;9.176;2023-07-31T13:13:16;97823.03;;;23.60;43.39
550;BME280;20066;48.764;9.176;2023-07-31T13:15:44;97822.88;;;24.30;42.38
550;BME280;20066;48.764;9.176;2023-07-31T13:18:12;97833.44;;;25.26;41.32
550;BME280;20066;48.764;9.176;2023-07-31T13:20:40;97823.78;;;24.22;42.33
550;BME280;20066;48.764;9.176;2023-07-31T13:23:09;97818.53;;;24.75;39.63
550;BME280;20066;48.764;9.176;2023-07-31T13:25:36;97820.03;;;25.08;38.96
550;BME280;20066;48.764;9.176;2023-07-31T13:28:04;97816.16;;;25.25;39.45
550;BME280;20066;48.764;9.176;2023-07-31T13:30:32;97814.16;;;26.56;36.92
550;BME280;20066;48.764;9.176;2023-07-31T13:33:00;97809.69;;;28.70;35.08
550;BME280;20066;48.764;9.176;2023-07-31T13:35:29;97802.22;;;28.90;33.27